createdAt,value
2018-11-03T00:00:58.078Z,7.00
2018-11-03T00:11:01.545Z,7.00
2018-11-03T00:21:05.109Z,8.27
2018-11-03T00:31:08.402Z,7.47
2018-11-03T00:41:11.758Z,7.70
2018-11-03T00:51:15.097Z,7.63
2018-11-03T01:11:32.856Z,7.87
2018-11-03T01:21:36.256Z,7.70
2018-11-03T01:31:39.495Z,7.10
2018-11-03T01:41:42.716Z,7.77
2018-11-03T01:51:46.216Z,8.50
2018-11-03T02:01:49.568Z,8.20
2018-11-03T02:11:52.921Z,7.70
2018-11-03T02:21:56.278Z,7.33
2018-11-03T02:31:59.621Z,7.27
2018-11-03T02:42:02.953Z,7.17
2018-11-03T02:52:06.604Z,7.37
2018-11-03T03:02:09.979Z,7.90
2018-11-03T03:12:13.296Z,7.63
2018-11-03T03:22:16.614Z,8.17
2018-11-03T03:32:19.972Z,8.17
2018-11-03T03:42:23.341Z,7.73
2018-11-03T03:52:26.648Z,8.03
2018-11-03T04:02:30.013Z,7.57
2018-11-03T04:12:33.261Z,7.97
2018-11-03T04:22:36.468Z,8.10
2018-11-03T04:32:39.684Z,8.17
2018-11-03T04:42:42.885Z,8.57
2018-11-03T04:52:46.697Z,8.00
2018-11-03T05:02:50.840Z,8.13
2018-11-03T05:12:54.357Z,8.90
2018-11-03T05:22:57.705Z,8.57
2018-11-03T05:33:01.004Z,9.00
2018-11-03T05:43:04.449Z,8.90
2018-11-03T05:53:07.996Z,9.47
2018-11-03T06:03:11.362Z,9.47
2018-11-03T06:13:14.703Z,10.13
2018-11-03T06:23:18.043Z,9.83
2018-11-03T06:33:21.407Z,10.57
2018-11-03T06:43:24.761Z,13.27
2018-11-03T06:53:28.103Z,10.70
2018-11-03T07:03:31.497Z,10.37
2018-11-03T07:13:34.769Z,11.50
2018-11-03T07:23:38.139Z,12.13
2018-11-03T07:33:41.397Z,12.03
2018-11-03T07:43:44.649Z,12.20
2018-11-03T07:53:48.438Z,12.17
2018-11-03T08:03:51.829Z,11.80
2018-11-03T08:13:55.144Z,12.17
2018-11-03T08:23:58.793Z,11.97
2018-11-03T08:34:02.179Z,12.90
2018-11-03T08:44:06.202Z,12.60
2018-11-03T08:54:09.781Z,13.10
2018-11-03T09:04:13.081Z,14.57
2018-11-03T09:14:16.528Z,12.30
2018-11-03T09:24:20.054Z,15.70
2018-11-03T09:34:23.484Z,13.20
2018-11-03T09:44:26.794Z,12.37
2018-11-03T09:54:30.242Z,13.20
2018-11-03T10:04:33.804Z,13.23
2018-11-03T10:14:37.122Z,14.23
2018-11-03T10:24:40.719Z,13.90
2018-11-03T10:34:44.096Z,15.20
2018-11-03T10:44:47.441Z,14.90
2018-11-03T10:54:50.780Z,14.73
2018-11-03T11:04:59.437Z,14.83
2018-11-03T11:15:03.113Z,14.97
2018-11-03T11:25:08.172Z,14.20
2018-11-03T11:35:11.845Z,14.43
2018-11-03T11:45:15.176Z,14.83
2018-11-03T11:55:18.736Z,14.77
2018-11-03T12:05:22.272Z,15.13
2018-11-03T12:15:25.553Z,22.23
2018-11-03T12:25:28.918Z,16.90
2018-11-03T12:35:32.216Z,23.53
2018-11-03T12:45:35.774Z,15.10
2018-11-03T12:55:39.224Z,15.17
2018-11-03T13:05:42.933Z,15.33
2018-11-03T13:15:46.318Z,15.87
2018-11-03T13:25:49.869Z,14.50
2018-11-03T13:35:53.205Z,15.27
2018-11-03T13:45:56.830Z,15.37
2018-11-03T13:56:00.249Z,14.20
2018-11-03T14:06:03.689Z,14.90
2018-11-03T14:16:07.228Z,15.37
2018-11-03T14:26:10.624Z,14.17
2018-11-03T14:36:13.939Z,14.93
2018-11-03T14:46:17.243Z,15.37
2018-11-03T14:56:21.132Z,17.13
2018-11-03T15:06:24.588Z,15.43
2018-11-03T15:16:27.896Z,14.63
2018-11-03T15:26:31.212Z,13.63
2018-11-03T15:36:34.589Z,14.13
2018-11-03T15:46:37.977Z,13.43
2018-11-03T15:56:41.308Z,17.27
2018-11-03T16:06:44.600Z,14.57
2018-11-03T16:16:48.929Z,14.37
2018-11-03T16:26:52.202Z,14.50
2018-11-03T16:36:55.744Z,14.13
2018-11-03T16:46:59.245Z,14.90
2018-11-03T16:57:02.873Z,14.63
2018-11-03T17:07:06.326Z,14.50
2018-11-03T17:17:09.852Z,14.30
2018-11-03T17:27:13.262Z,14.03
2018-11-03T17:37:16.561Z,15.03
2018-11-03T17:47:19.869Z,15.97
2018-11-03T17:57:23.237Z,16.20
2018-11-03T18:07:26.576Z,16.03
2018-11-03T18:17:30.121Z,16.43
2018-11-03T18:27:33.602Z,17.83
2018-11-03T18:37:36.936Z,18.47
2018-11-03T18:47:40.240Z,17.63
2018-11-03T18:57:43.719Z,18.30
2018-11-03T19:07:47.272Z,18.27
2018-11-03T19:17:51.521Z,19.27
2018-11-03T19:27:54.867Z,19.97
2018-11-03T19:37:58.204Z,20.10
2018-11-03T19:48:01.600Z,20.10
2018-11-03T19:58:05.477Z,19.00
2018-11-03T20:08:09.085Z,20.30
2018-11-03T20:18:12.510Z,20.67
2018-11-03T20:28:15.841Z,21.80
2018-11-03T20:38:19.213Z,21.87
2018-11-03T20:48:22.556Z,23.90
2018-11-03T20:58:25.920Z,23.23
2018-11-03T21:08:29.253Z,24.07
2018-11-03T21:18:32.559Z,24.97
2018-11-03T21:28:38.968Z,24.83
2018-11-03T21:38:42.391Z,25.50
2018-11-03T21:48:45.893Z,24.93
2018-11-03T21:58:49.330Z,25.70
2018-11-03T22:08:52.672Z,26.47
2018-11-03T22:18:56.029Z,27.50
2018-11-03T22:28:59.365Z,29.03
2018-11-03T22:39:03.012Z,28.80
2018-11-03T22:49:06.365Z,28.40
2018-11-03T22:59:09.715Z,28.50
2018-11-03T23:09:13.049Z,28.47
2018-11-03T23:19:16.468Z,29.23
2018-11-03T23:29:19.923Z,29.00
2018-11-03T23:39:23.377Z,29.73
2018-11-03T23:49:26.720Z,28.47
2018-11-03T23:59:30.231Z,29.23
